sensor_id;sensor_type;location;lat;lon;timestamp;temperature;humidity
52799;DHT22;38667;42.872;74.622;2023-05-29T00:00:26;15.10;47.80
52799;DHT22;38667;42.872;74.622;2023-05-29T00:02:52;15.10;47.80
52799;DHT22;38667;42.872;74.622;2023-05-29T00:05:19;15.00;49.60
52799;DHT22;38667;42.872;74.622;2023-05-29T00:07:45;14.90;50.50
52799;DHT22;38667;42.872;74.622;2023-05-29T00:10:13;14.90;52.00
52799;DHT22;38667;42.872;74.622;2023-05-29T00:12:39;14.80;51.70
52799;DHT22;38667;42.872;74.622;2023-05-29T00:15:06;14.80;51.30
52799;DHT22;38667;42.872;74.622;2023-05-29T00:17:33;14.80;51.70
52799;DHT22;38667;42.872;74.622;2023-05-29T00:19:59;14.70;51.10
52799;DHT22;38667;42.872;74.622;2023-05-29T00:22:25;14.70;51.10
52799;DHT22;38667;42.872;74.622;2023-05-29T00:24:51;14.80;51.40
52799;DHT22;38667;42.872;74.622;2023-05-29T00:27:19;14.80;51.60
52799;DHT22;38667;42.872;74.622;2023-05-29T00:29:46;14.90;51.80
52799;DHT22;38667;42.872;74.622;2023-05-29T00:32:12;14.90;53.00
52799;DHT22;38667;42.872;74.622;2023-05-29T00:34:38;15.00;53.00
52799;DHT22;38667;42.872;74.622;2023-05-29T00:37:04;15.00;53.10
52799;DHT22;38667;42.872;74.622;2023-05-29T00:39:31;15.10;55.10
52799;DHT22;38667;42.872;74.622;2023-05-29T00:41:57;15.10;54.40
52799;DHT22;38667;42.872;74.622;2023-05-29T00:44:25;15.10;55.40
52799;DHT22;38667;42.872;74.622;2023-05-29T00:46:52;15.10;55.60
52799;DHT22;38667;42.872;74.622;2023-05-29T00:49:19;15.10;56.90
52799;DHT22;38667;42.872;74.622;2023-05-29T00:51:46;15.10;57.20
52799;DHT22;38667;42.872;74.622;2023-05-29T00:54:20;15.10;57.00
52799;DHT22;38667;42.872;74.622;2023-05-29T00:56:46;15.20;57.50
52799;DHT22;38667;42.872;74.622;2023-05-29T00:59:13;15.20;57.00
52799;DHT22;38667;42.872;74.622;2023-05-29T01:01:41;15.30;56.50
52799;DHT22;38667;42.872;74.622;2023-05-29T01:04:09;15.40;57.60
52799;DHT22;38667;42.872;74.622;2023-05-29T01:06:35;15.40;57.00
52799;DHT22;38667;42.872;74.622;2023-05-29T01:09:02;15.40;57.70
52799;DHT22;38667;42.872;74.622;2023-05-29T01:11:34;15.50;56.60
52799;DHT22;38667;42.872;74.622;2023-05-29T01:14:07;15.60;55.10
52799;DHT22;38667;42.872;74.622;2023-05-29T01:16:38;15.70;54.70
52799;DHT22;38667;42.872;74.622;2023-05-29T01:19:17;15.80;54.70
52799;DHT22;38667;42.872;74.622;2023-05-29T01:21:59;15.80;57.60
52799;DHT22;38667;42.872;74.622;2023-05-29T01:24:36;15.80;55.40
52799;DHT22;38667;42.872;74.622;2023-05-29T01:27:05;15.80;56.50
52799;DHT22;38667;42.872;74.622;2023-05-29T01:29:34;15.90;56.40
52799;DHT22;38667;42.872;74.622;2023-05-29T01:32:01;15.90;56.70
52799;DHT22;38667;42.872;74.622;2023-05-29T01:34:28;15.90;56.90
52799;DHT22;38667;42.872;74.622;2023-05-29T01:36:54;16.00;58.30
52799;DHT22;38667;42.872;74.622;2023-05-29T01:39:20;16.10;59.40
52799;DHT22;38667;42.872;74.622;2023-05-29T01:41:47;16.10;59.00
52799;DHT22;38667;42.872;74.622;2023-05-29T01:44:15;16.10;58.70
52799;DHT22;38667;42.872;74.622;2023-05-29T01:46:43;16.20;57.40
52799;DHT22;38667;42.872;74.622;2023-05-29T01:49:09;16.20;56.60
52799;DHT22;38667;42.872;74.622;2023-05-29T01:51:36;16.20;56.90
52799;DHT22;38667;42.872;74.622;2023-05-29T01:54:03;16.30;57.00
52799;DHT22;38667;42.872;74.622;2023-05-29T01:56:30;16.40;57.30
52799;DHT22;38667;42.872;74.622;2023-05-29T01:58:57;16.50;57.90
52799;DHT22;38667;42.872;74.622;2023-05-29T02:03:56;16.50;56.20
52799;DHT22;38667;42.872;74.622;2023-05-29T03:12:40;18.20;47.90
52799;DHT22;38667;42.872;74.622;2023-05-29T03:15:07;18.40;47.70
52799;DHT22;38667;42.872;74.622;2023-05-29T03:17:33;18.50;47.90
52799;DHT22;38667;42.872;74.622;2023-05-29T03:19:59;18.60;47.90
52799;DHT22;38667;42.872;74.622;2023-05-29T03:22:26;18.70;48.20
52799;DHT22;38667;42.872;74.622;2023-05-29T03:24:52;18.70;48.00
52799;DHT22;38667;42.872;74.622;2023-05-29T03:27:18;18.80;47.70
52799;DHT22;38667;42.872;74.622;2023-05-29T03:29:46;18.90;47.70
52799;DHT22;38667;42.872;74.622;2023-05-29T03:32:13;19.00;47.80
52799;DHT22;38667;42.872;74.622;2023-05-29T03:34:39;19.20;47.30
52799;DHT22;38667;42.872;74.622;2023-05-29T03:37:05;19.30;46.90
52799;DHT22;38667;42.872;74.622;2023-05-29T03:39:32;19.40;46.30
52799;DHT22;38667;42.872;74.622;2023-05-29T03:41:58;19.40;45.60
52799;DHT22;38667;42.872;74.622;2023-05-29T03:44:24;19.50;45.70
52799;DHT22;38667;42.872;74.622;2023-05-29T03:46:52;19.50;45.50
52799;DHT22;38667;42.872;74.622;2023-05-29T03:49:18;19.50;45.60
52799;DHT22;38667;42.872;74.622;2023-05-29T03:51:45;19.50;45.40
52799;DHT22;38667;42.872;74.622;2023-05-29T03:54:11;19.60;45.20
52799;DHT22;38667;42.872;74.622;2023-05-29T03:56:37;19.70;45.30
52799;DHT22;38667;42.872;74.622;2023-05-29T03:59:04;19.80;45.40
52799;DHT22;38667;42.872;74.622;2023-05-29T04:01:30;19.90;45.40
52799;DHT22;38667;42.872;74.622;2023-05-29T04:03:58;19.90;45.40
52799;DHT22;38667;42.872;74.622;2023-05-29T04:06:24;19.90;45.40
52799;DHT22;38667;42.872;74.622;2023-05-29T04:08:51;20.00;45.40
52799;DHT22;38667;42.872;74.622;2023-05-29T04:11:17;20.10;45.80
52799;DHT22;38667;42.872;74.622;2023-05-29T04:13:43;20.20;45.70
52799;DHT22;38667;42.872;74.622;2023-05-29T04:16:10;20.30;45.60
52799;DHT22;38667;42.872;74.622;2023-05-29T04:18:36;20.30;45.00
52799;DHT22;38667;42.872;74.622;2023-05-29T04:21:05;20.30;44.50
52799;DHT22;38667;42.872;74.622;2023-05-29T04:23:31;20.20;44.70
52799;DHT22;38667;42.872;74.622;2023-05-29T04:25:57;20.20;44.90
52799;DHT22;38667;42.872;74.622;2023-05-29T04:28:24;20.30;45.20
52799;DHT22;38667;42.872;74.622;2023-05-29T04:30:50;20.40;44.70
52799;DHT22;38667;42.872;74.622;2023-05-29T04:33:18;20.50;44.50
52799;DHT22;38667;42.872;74.622;2023-05-29T04:35:44;20.50;44.60
52799;DHT22;38667;42.872;74.622;2023-05-29T04:38:12;20.60;45.30
52799;DHT22;38667;42.872;74.622;2023-05-29T04:40:38;20.70;45.20
52799;DHT22;38667;42.872;74.622;2023-05-29T04:43:04;20.90;44.50
52799;DHT22;38667;42.872;74.622;2023-05-29T04:45:31;20.90;43.50
52799;DHT22;38667;42.872;74.622;2023-05-29T04:47:57;21.00;41.70
52799;DHT22;38667;42.872;74.622;2023-05-29T04:50:23;21.00;43.10
52799;DHT22;38667;42.872;74.622;2023-05-29T04:52:50;21.10;42.70
52799;DHT22;38667;42.872;74.622;2023-05-29T04:55:17;21.20;42.00
52799;DHT22;38667;42.872;74.622;2023-05-29T04:57:44;21.30;43.10
52799;DHT22;38667;42.872;74.622;2023-05-29T05:00:11;21.30;42.40
52799;DHT22;38667;42.872;74.622;2023-05-29T05:02:37;21.30;41.90
52799;DHT22;38667;42.872;74.622;2023-05-29T05:05:04;21.40;41.30
52799;DHT22;38667;42.872;74.622;2023-05-29T05:07:31;21.30;40.50
52799;DHT22;38667;42.872;74.622;2023-05-29T05:09:57;21.30;39.70
52799;DHT22;38667;42.872;74.622;2023-05-29T05:12:25;21.30;40.70
52799;DHT22;38667;42.872;74.622;2023-05-29T05:14:51;21.40;41.40
52799;DHT22;38667;42.872;74.622;2023-05-29T05:17:17;21.50;41.50
52799;DHT22;38667;42.872;74.622;2023-05-29T05:19:44;21.60;41.10
52799;DHT22;38667;42.872;74.622;2023-05-29T05:22:10;21.70;41.10
52799;DHT22;38667;42.872;74.622;2023-05-29T05:24:36;21.90;41.20
52799;DHT22;38667;42.872;74.622;2023-05-29T05:27:04;22.00;40.70
52799;DHT22;38667;42.872;74.622;2023-05-29T05:29:32;22.10;40.70
52799;DHT22;38667;42.872;74.622;2023-05-29T05:31:58;22.20;40.70
52799;DHT22;38667;42.872;74.622;2023-05-29T05:34:24;22.40;40.00
52799;DHT22;38667;42.872;74.622;2023-05-29T05:36:51;22.50;39.30
52799;DHT22;38667;42.872;74.622;2023-05-29T05:39:17;22.60;39.00
52799;DHT22;38667;42.872;74.622;2023-05-29T05:41:43;22.70;38.50
52799;DHT22;38667;42.872;74.622;2023-05-29T05:44:10;22.80;38.10
52799;DHT22;38667;42.872;74.622;2023-05-29T05:46:37;23.10;37.90
52799;DHT22;38667;42.872;74.622;2023-05-29T05:49:04;23.30;37.00
52799;DHT22;38667;42.872;74.622;2023-05-29T05:51:30;23.60;34.80
52799;DHT22;38667;42.872;74.622;2023-05-29T05:53:56;23.60;34.50
52799;DHT22;38667;42.872;74.622;2023-05-29T05:56:22;23.90;36.00
52799;DHT22;38667;42.872;74.622;2023-05-29T05:58:49;24.10;36.50
52799;DHT22;38667;42.872;74.622;2023-05-29T06:01:15;24.10;35.80
52799;DHT22;38667;42.872;74.622;2023-05-29T06:03:43;24.00;35.50
52799;DHT22;38667;42.872;74.622;2023-05-29T06:06:09;23.90;34.20
52799;DHT22;38667;42.872;74.622;2023-05-29T06:08:36;23.70;34.90
52799;DHT22;38667;42.872;74.622;2023-05-29T06:11:02;23.60;36.20
52799;DHT22;38667;42.872;74.622;2023-05-29T06:13:28;23.50;36.30
52799;DHT22;38667;42.872;74.622;2023-05-29T06:15:54;23.50;36.00
52799;DHT22;38667;42.872;74.622;2023-05-29T06:18:21;23.50;35.00
52799;DHT22;38667;42.872;74.622;2023-05-29T06:20:49;23.40;34.70
52799;DHT22;38667;42.872;74.622;2023-05-29T06:23:15;23.40;33.90
52799;DHT22;38667;42.872;74.622;2023-05-29T06:25:41;23.40;34.40
52799;DHT22;38667;42.872;74.622;2023-05-29T06:28:08;23.30;34.00
52799;DHT22;38667;42.872;74.622;2023-05-29T06:30:34;23.30;34.80
52799;DHT22;38667;42.872;74.622;2023-05-29T06:33:00;23.30;35.00
52799;DHT22;38667;42.872;74.622;2023-05-29T06:35:27;23.20;35.00
52799;DHT22;38667;42.872;74.622;2023-05-29T06:37:54;23.10;35.70
52799;DHT22;38667;42.872;74.622;2023-05-29T06:40:21;23.00;35.20
52799;DHT22;38667;42.872;74.622;2023-05-29T06:42:47;23.20;33.70
52799;DHT22;38667;42.872;74.622;2023-05-29T06:45:14;23.30;33.10
52799;DHT22;38667;42.872;74.622;2023-05-29T06:47:40;23.40;33.90
52799;DHT22;38667;42.872;74.622;2023-05-29T06:50:07;23.40;32.90
52799;DHT22;38667;42.872;74.622;2023-05-29T06:52:34;23.40;33.90
52799;DHT22;38667;42.872;74.622;2023-05-29T06:55:01;23.30;32.00
52799;DHT22;38667;42.872;74.622;2023-05-29T06:57:28;23.20;33.90
52799;DHT22;38667;42.872;74.622;2023-05-29T06:59:54;23.20;34.60
52799;DHT22;38667;42.872;74.622;2023-05-29T07:02:20;23.20;34.80
52799;DHT22;38667;42.872;74.622;2023-05-29T07:04:47;23.20;34.80
52799;DHT22;38667;42.872;74.622;2023-05-29T07:07:13;23.30;34.40
52799;DHT22;38667;42.872;74.622;2023-05-29T07:09:39;23.40;34.50
52799;DHT22;38667;42.872;74.622;2023-05-29T07:12:07;23.50;34.50
52799;DHT22;38667;42.872;74.622;2023-05-29T07:14:34;23.60;34.90
52799;DHT22;38667;42.872;74.622;2023-05-29T07:17:00;23.70;35.20
52799;DHT22;38667;42.872;74.622;2023-05-29T07:19:26;23.70;34.90
52799;DHT22;38667;42.872;74.622;2023-05-29T07:21:53;23.70;34.80
52799;DHT22;38667;42.872;74.622;2023-05-29T07:24:19;23.70;35.20
52799;DHT22;38667;42.872;74.622;2023-05-29T07:26:45;23.40;35.20
52799;DHT22;38667;42.872;74.622;2023-05-29T07:29:13;23.40;34.70
52799;DHT22;38667;42.872;74.622;2023-05-29T07:31:40;23.50;34.40
52799;DHT22;38667;42.872;74.622;2023-05-29T07:34:06;23.50;35.20
52799;DHT22;38667;42.872;74.622;2023-05-29T07:36:32;23.40;34.50
52799;DHT22;38667;42.872;74.622;2023-05-29T07:38:59;23.30;34.60
52799;DHT22;38667;42.872;74.622;2023-05-29T07:41:25;23.40;32.00
52799;DHT22;38667;42.872;74.622;2023-05-29T07:43:51;23.40;34.10
52799;DHT22;38667;42.872;74.622;2023-05-29T07:46:19;23.30;33.20
52799;DHT22;38667;42.872;74.622;2023-05-29T07:48:46;23.40;32.00
52799;DHT22;38667;42.872;74.622;2023-05-29T07:51:12;23.50;33.40
52799;DHT22;38667;42.872;74.622;2023-05-29T07:53:38;23.60;32.20
52799;DHT22;38667;42.872;74.622;2023-05-29T07:56:05;23.60;31.40
52799;DHT22;38667;42.872;74.622;2023-05-29T07:58:31;23.60;32.80
52799;DHT22;38667;42.872;74.622;2023-05-29T08:00:58;23.60;33.70
52799;DHT22;38667;42.872;74.622;2023-05-29T08:03:25;23.80;33.40
52799;DHT22;38667;42.872;74.622;2023-05-29T08:05:52;23.90;32.30
52799;DHT22;38667;42.872;74.622;2023-05-29T08:08:18;24.10;32.50
52799;DHT22;38667;42.872;74.622;2023-05-29T08:10:44;24.40;32.80
52799;DHT22;38667;42.872;74.622;2023-05-29T08:13:11;24.60;32.90
52799;DHT22;38667;42.872;74.622;2023-05-29T08:15:37;24.60;32.10
52799;DHT22;38667;42.872;74.622;2023-05-29T08:18:03;24.70;32.10
52799;DHT22;38667;42.872;74.622;2023-05-29T08:20:31;24.60;32.40
52799;DHT22;38667;42.872;74.622;2023-05-29T08:22:57;24.40;33.00
52799;DHT22;38667;42.872;74.622;2023-05-29T08:25:24;24.50;31.80
52799;DHT22;38667;42.872;74.622;2023-05-29T08:27:50;24.40;32.90
52799;DHT22;38667;42.872;74.622;2023-05-29T08:30:16;24.20;32.90
52799;DHT22;38667;42.872;74.622;2023-05-29T08:32:43;24.20;32.70
52799;DHT22;38667;42.872;74.622;2023-05-29T08:35:09;24.10;33.40
52799;DHT22;38667;42.872;74.622;2023-05-29T08:37:37;24.00;33.20
52799;DHT22;38667;42.872;74.622;2023-05-29T08:40:04;23.80;34.10
52799;DHT22;38667;42.872;74.622;2023-05-29T08:42:33;23.60;34.10
52799;DHT22;38667;42.872;74.622;2023-05-29T08:45:03;23.40;34.30
52799;DHT22;38667;42.872;74.622;2023-05-29T08:47:33;23.50;32.40
52799;DHT22;38667;42.872;74.622;2023-05-29T08:50:00;23.40;32.60
52799;DHT22;38667;42.872;74.622;2023-05-29T08:52:29;23.40;32.90
52799;DHT22;38667;42.872;74.622;2023-05-29T08:55:00;23.40;33.50
52799;DHT22;38667;42.872;74.622;2023-05-29T08:57:27;23.40;32.10
52799;DHT22;38667;42.872;74.622;2023-05-29T08:59:55;23.40;31.10
52799;DHT22;38667;42.872;74.622;2023-05-29T09:02:22;23.50;32.20
52799;DHT22;38667;42.872;74.622;2023-05-29T09:04:48;23.40;33.00
52799;DHT22;38667;42.872;74.622;2023-05-29T09:07:15;23.40;33.40
52799;DHT22;38667;42.872;74.622;2023-05-29T09:09:42;23.50;33.90
52799;DHT22;38667;42.872;74.622;2023-05-29T09:12:10;23.70;33.80
52799;DHT22;38667;42.872;74.622;2023-05-29T09:14:37;23.70;31.20
52799;DHT22;38667;42.872;74.622;2023-05-29T09:17:04;23.80;30.30
52799;DHT22;38667;42.872;74.622;2023-05-29T09:19:30;24.10;30.70
52799;DHT22;38667;42.872;74.622;2023-05-29T09:22:07;24.50;32.10
52799;DHT22;38667;42.872;74.622;2023-05-29T09:24:34;24.70;31.90
52799;DHT22;38667;42.872;74.622;2023-05-29T09:27:01;24.60;31.70
52799;DHT22;38667;42.872;74.622;2023-05-29T09:29:31;24.30;31.60
52799;DHT22;38667;42.872;74.622;2023-05-29T09:31:57;24.10;31.30
52799;DHT22;38667;42.872;74.622;2023-05-29T09:34:24;24.00;31.20
52799;DHT22;38667;42.872;74.622;2023-05-29T09:36:50;23.90;31.00
52799;DHT22;38667;42.872;74.622;2023-05-29T09:39:17;24.10;30.60
52799;DHT22;38667;42.872;74.622;2023-05-29T09:41:43;23.70;30.80
52799;DHT22;38667;42.872;74.622;2023-05-29T09:44:12;23.50;31.60
52799;DHT22;38667;42.872;74.622;2023-05-29T09:46:40;23.30;32.40
52799;DHT22;38667;42.872;74.622;2023-05-29T09:49:11;23.20;32.20
52799;DHT22;38667;42.872;74.622;2023-05-29T09:51:37;23.20;31.60
52799;DHT22;38667;42.872;74.622;2023-05-29T09:54:14;23.20;31.70
52799;DHT22;38667;42.872;74.622;2023-05-29T09:56:41;23.20;32.00
52799;DHT22;38667;42.872;74.622;2023-05-29T09:59:10;23.20;32.00
52799;DHT22;38667;42.872;74.622;2023-05-29T10:01:40;23.20;31.50
52799;DHT22;38667;42.872;74.622;2023-05-29T10:04:07;23.30;31.50
52799;DHT22;38667;42.872;74.622;2023-05-29T10:06:36;23.30;32.00
52799;DHT22;38667;42.872;74.622;2023-05-29T10:09:03;23.50;29.70
52799;DHT22;38667;42.872;74.622;2023-05-29T10:11:32;23.80;31.90
52799;DHT22;38667;42.872;74.622;2023-05-29T10:14:00;23.60;31.70
52799;DHT22;38667;42.872;74.622;2023-05-29T10:16:27;23.30;31.80
52799;DHT22;38667;42.872;74.622;2023-05-29T10:18:56;23.20;31.30
52799;DHT22;38667;42.872;74.622;2023-05-29T10:21:26;23.10;32.10
52799;DHT22;38667;42.872;74.622;2023-05-29T10:23:53;23.00;31.90
52799;DHT22;38667;42.872;74.622;2023-05-29T10:26:21;23.00;31.80
52799;DHT22;38667;42.872;74.622;2023-05-29T10:28:52;23.20;31.30
52799;DHT22;38667;42.872;74.622;2023-05-29T10:31:26;23.10;31.40
52799;DHT22;38667;42.872;74.622;2023-05-29T10:34:06;23.00;31.70
52799;DHT22;38667;42.872;74.622;2023-05-29T10:36:37;23.00;30.70
52799;DHT22;38667;42.872;74.622;2023-05-29T10:39:04;23.10;30.90
52799;DHT22;38667;42.872;74.622;2023-05-29T10:41:31;23.10;30.90
52799;DHT22;38667;42.872;74.622;2023-05-29T10:43:59;23.00;31.30
52799;DHT22;38667;42.872;74.622;2023-05-29T10:49:26;23.50;31.00
52799;DHT22;38667;42.872;74.622;2023-05-29T10:51:53;23.60;30.30
52799;DHT22;38667;42.872;74.622;2023-05-29T10:54:21;23.60;30.80
52799;DHT22;38667;42.872;74.622;2023-05-29T10:56:52;23.40;32.20
52799;DHT22;38667;42.872;74.622;2023-05-29T10:59:20;23.10;32.20
52799;DHT22;38667;42.872;74.622;2023-05-29T11:01:47;23.10;31.90
52799;DHT22;38667;42.872;74.622;2023-05-29T11:04:28;23.00;31.70
52799;DHT22;38667;42.872;74.622;2023-05-29T11:06:55;22.90;31.80
52799;DHT22;38667;42.872;74.622;2023-05-29T11:09:28;22.90;31.60
52799;DHT22;38667;42.872;74.622;2023-05-29T11:12:10;22.90;31.60
52799;DHT22;38667;42.872;74.622;2023-05-29T11:14:45;22.80;32.50
52799;DHT22;38667;42.872;74.622;2023-05-29T11:17:31;22.80;32.00
52799;DHT22;38667;42.872;74.622;2023-05-29T11:20:02;22.70;31.80
52799;DHT22;38667;42.872;74.622;2023-05-29T11:22:41;22.70;31.90
52799;DHT22;38667;42.872;74.622;2023-05-29T11:25:14;22.70;31.30
52799;DHT22;38667;42.872;74.622;2023-05-29T11:27:41;22.70;31.60
52799;DHT22;38667;42.872;74.622;2023-05-29T11:30:07;22.70;31.80
52799;DHT22;38667;42.872;74.622;2023-05-29T11:32:36;22.70;32.60
52799;DHT22;38667;42.872;74.622;2023-05-29T11:35:07;22.80;31.40
52799;DHT22;38667;42.872;74.622;2023-05-29T11:37:34;22.80;31.50
52799;DHT22;38667;42.872;74.622;2023-05-29T11:40:03;22.70;31.30
52799;DHT22;38667;42.872;74.622;2023-05-29T11:42:30;22.70;31.90
52799;DHT22;38667;42.872;74.622;2023-05-29T11:45:10;22.60;31.90
52799;DHT22;38667;42.872;74.622;2023-05-29T11:47:53;22.60;31.90
52799;DHT22;38667;42.872;74.622;2023-05-29T11:50:22;22.60;31.90
52799;DHT22;38667;42.872;74.622;2023-05-29T11:52:48;22.60;32.20
52799;DHT22;38667;42.872;74.622;2023-05-29T11:55:15;22.50;32.30
52799;DHT22;38667;42.872;74.622;2023-05-29T11:57:41;22.50;32.30
52799;DHT22;38667;42.872;74.622;2023-05-29T12:00:11;22.40;32.00
52799;DHT22;38667;42.872;74.622;2023-05-29T12:02:38;22.40;31.40
52799;DHT22;38667;42.872;74.622;2023-05-29T12:05:05;22.40;31.50
52799;DHT22;38667;42.872;74.622;2023-05-29T12:07:33;22.30;32.20
52799;DHT22;38667;42.872;74.622;2023-05-29T12:10:09;22.40;32.20
52799;DHT22;38667;42.872;74.622;2023-05-29T12:12:36;22.30;31.90
52799;DHT22;38667;42.872;74.622;2023-05-29T12:15:02;22.30;32.30
52799;DHT22;38667;42.872;74.622;2023-05-29T12:17:28;22.20;31.90
52799;DHT22;38667;42.872;74.622;2023-05-29T12:19:55;22.30;31.70
52799;DHT22;38667;42.872;74.622;2023-05-29T12:22:33;22.30;31.70
52799;DHT22;38667;42.872;74.622;2023-05-29T12:25:05;22.30;31.50
52799;DHT22;38667;42.872;74.622;2023-05-29T12:27:32;22.30;31.90
52799;DHT22;38667;42.872;74.622;2023-05-29T12:30:00;22.30;31.50
52799;DHT22;38667;42.872;74.622;2023-05-29T12:32:35;22.20;31.10
52799;DHT22;38667;42.872;74.622;2023-05-29T12:35:01;22.20;31.20
52799;DHT22;38667;42.872;74.622;2023-05-29T12:37:30;22.30;30.30
52799;DHT22;38667;42.872;74.622;2023-05-29T12:40:15;22.60;28.50
52799;DHT22;38667;42.872;74.622;2023-05-29T12:42:42;22.80;28.70
52799;DHT22;38667;42.872;74.622;2023-05-29T12:45:09;22.90;29.40
52799;DHT22;38667;42.872;74.622;2023-05-29T12:47:35;23.00;29.70
52799;DHT22;38667;42.872;74.622;2023-05-29T12:50:18;23.00;29.70
52799;DHT22;38667;42.872;74.622;2023-05-29T12:52:45;23.10;29.90
52799;DHT22;38667;42.872;74.622;2023-05-29T12:55:14;23.10;30.00
52799;DHT22;38667;42.872;74.622;2023-05-29T12:57:40;23.10;30.00
52799;DHT22;38667;42.872;74.622;2023-05-29T13:00:08;23.10;29.70
52799;DHT22;38667;42.872;74.622;2023-05-29T13:02:34;23.10;29.30
52799;DHT22;38667;42.872;74.622;2023-05-29T13:05:01;23.10;28.70
52799;DHT22;38667;42.872;74.622;2023-05-29T13:07:27;23.10;28.70
52799;DHT22;38667;42.872;74.622;2023-05-29T13:09:53;23.10;28.50
52799;DHT22;38667;42.872;74.622;2023-05-29T13:12:21;23.20;28.60
52799;DHT22;38667;42.872;74.622;2023-05-29T13:14:47;23.20;29.00
52799;DHT22;38667;42.872;74.622;2023-05-29T13:17:14;23.10;29.10
52799;DHT22;38667;42.872;74.622;2023-05-29T13:19:40;23.10;29.30
52799;DHT22;38667;42.872;74.622;2023-05-29T13:22:06;23.10;29.40
52799;DHT22;38667;42.872;74.622;2023-05-29T13:24:33;23.10;29.70
52799;DHT22;38667;42.872;74.622;2023-05-29T13:26:59;23.00;29.90
52799;DHT22;38667;42.872;74.622;2023-05-29T13:29:27;23.00;30.20
52799;DHT22;38667;42.872;74.622;2023-05-29T13:31:53;22.90;30.50
52799;DHT22;38667;42.872;74.622;2023-05-29T13:34:20;22.90;30.50
52799;DHT22;38667;42.872;74.622;2023-05-29T13:36:46;22.80;30.30
52799;DHT22;38667;42.872;74.622;2023-05-29T13:39:12;22.80;30.10
52799;DHT22;38667;42.872;74.622;2023-05-29T13:41:39;22.80;30.10
52799;DHT22;38667;42.872;74.622;2023-05-29T13:44:05;22.70;30.20
52799;DHT22;38667;42.872;74.622;2023-05-29T13:46:33;22.70;30.30
52799;DHT22;38667;42.872;74.622;2023-05-29T13:49:00;22.60;30.40
52799;DHT22;38667;42.872;74.622;2023-05-29T13:51:26;22.60;30.70
52799;DHT22;38667;42.872;74.622;2023-05-29T13:53:52;22.50;31.00
52799;DHT22;38667;42.872;74.622;2023-05-29T13:56:18;22.50;31.00
52799;DHT22;38667;42.872;74.622;2023-05-29T13:58:45;22.40;30.90
52799;DHT22;38667;42.872;74.622;2023-05-29T14:01:11;22.40;31.20
52799;DHT22;38667;42.872;74.622;2023-05-29T14:03:39;22.40;31.50
52799;DHT22;38667;42.872;74.622;2023-05-29T14:06:05;22.30;31.90
52799;DHT22;38667;42.872;74.622;2023-05-29T14:08:32;22.30;31.70
52799;DHT22;38667;42.872;74.622;2023-05-29T14:10:58;22.20;31.80
52799;DHT22;38667;42.872;74.622;2023-05-29T14:13:24;22.20;31.50
52799;DHT22;38667;42.872;74.622;2023-05-29T14:15:51;22.10;31.20
52799;DHT22;38667;42.872;74.622;2023-05-29T14:18:17;22.10;31.90
52799;DHT22;38667;42.872;74.622;2023-05-29T14:20:45;22.00;31.90
52799;DHT22;38667;42.872;74.622;2023-05-29T14:23:12;22.00;32.10
52799;DHT22;38667;42.872;74.622;2023-05-29T14:25:38;21.90;31.10
52799;DHT22;38667;42.872;74.622;2023-05-29T14:28:05;21.80;31.20
52799;DHT22;38667;42.872;74.622;2023-05-29T14:30:31;21.80;31.50
52799;DHT22;38667;42.872;74.622;2023-05-29T14:32:57;21.80;31.90
52799;DHT22;38667;42.872;74.622;2023-05-29T14:35:24;21.70;31.60
52799;DHT22;38667;42.872;74.622;2023-05-29T14:37:52;21.60;32.30
52799;DHT22;38667;42.872;74.622;2023-05-29T14:40:18;21.60;32.80
52799;DHT22;38667;42.872;74.622;2023-05-29T14:42:45;21.50;32.70
52799;DHT22;38667;42.872;74.622;2023-05-29T14:45:11;21.40;32.80
52799;DHT22;38667;42.872;74.622;2023-05-29T14:47:38;21.30;32.70
52799;DHT22;38667;42.872;74.622;2023-05-29T14:50:05;21.20;33.30
52799;DHT22;38667;42.872;74.622;2023-05-29T14:52:34;21.10;34.20
52799;DHT22;38667;42.872;74.622;2023-05-29T14:55:03;21.10;32.20
52799;DHT22;38667;42.872;74.622;2023-05-29T14:57:30;21.00;32.80
52799;DHT22;38667;42.872;74.622;2023-05-29T14:59:57;21.00;34.00
52799;DHT22;38667;42.872;74.622;2023-05-29T15:02:23;20.90;33.10
52799;DHT22;38667;42.872;74.622;2023-05-29T15:04:49;20.90;33.50
52799;DHT22;38667;42.872;74.622;2023-05-29T15:07:17;20.80;33.90
52799;DHT22;38667;42.872;74.622;2023-05-29T15:09:43;20.80;34.00
52799;DHT22;38667;42.872;74.622;2023-05-29T15:32:48;20.70;32.90
52799;DHT22;38667;42.872;74.622;2023-05-29T15:35:15;20.40;36.20
52799;DHT22;38667;42.872;74.622;2023-05-29T15:37:42;20.40;34.20
52799;DHT22;38667;42.872;74.622;2023-05-29T15:40:09;20.40;37.10
52799;DHT22;38667;42.872;74.622;2023-05-29T15:42:36;20.40;35.40
52799;DHT22;38667;42.872;74.622;2023-05-29T15:45:03;20.30;32.60
52799;DHT22;38667;42.872;74.622;2023-05-29T15:47:29;20.30;33.60
52799;DHT22;38667;42.872;74.622;2023-05-29T15:49:57;20.30;34.30
52799;DHT22;38667;42.872;74.622;2023-05-29T15:52:24;20.30;33.60
52799;DHT22;38667;42.872;74.622;2023-05-29T15:54:50;20.20;33.60
52799;DHT22;38667;42.872;74.622;2023-05-29T15:57:17;20.20;33.10
52799;DHT22;38667;42.872;74.622;2023-05-29T15:59:43;20.20;31.70
52799;DHT22;38667;42.872;74.622;2023-05-29T16:02:10;20.10;34.80
52799;DHT22;38667;42.872;74.622;2023-05-29T16:04:36;20.10;36.00
52799;DHT22;38667;42.872;74.622;2023-05-29T16:07:05;20.00;35.90
52799;DHT22;38667;42.872;74.622;2023-05-29T16:09:31;20.00;31.90
52799;DHT22;38667;42.872;74.622;2023-05-29T16:11:58;20.00;31.60
52799;DHT22;38667;42.872;74.622;2023-05-29T16:14:24;20.10;31.60
52799;DHT22;38667;42.872;74.622;2023-05-29T16:16:50;20.10;32.20
52799;DHT22;38667;42.872;74.622;2023-05-29T16:19:17;20.00;32.40
52799;DHT22;38667;42.872;74.622;2023-05-29T16:21:43;20.00;32.20
52799;DHT22;38667;42.872;74.622;2023-05-29T16:24:11;20.00;32.20
52799;DHT22;38667;42.872;74.622;2023-05-29T16:26:37;20.00;32.10
52799;DHT22;38667;42.872;74.622;2023-05-29T16:29:04;19.90;32.70
52799;DHT22;38667;42.872;74.622;2023-05-29T16:31:31;19.90;32.70
52799;DHT22;38667;42.872;74.622;2023-05-29T16:33:57;19.90;33.20
52799;DHT22;38667;42.872;74.622;2023-05-29T16:36:24;19.80;34.00
52799;DHT22;38667;42.872;74.622;2023-05-29T16:38:50;19.80;34.50
52799;DHT22;38667;42.872;74.622;2023-05-29T16:41:18;19.70;35.70
52799;DHT22;38667;42.872;74.622;2023-05-29T16:43:45;19.60;35.80
52799;DHT22;38667;42.872;74.622;2023-05-29T16:46:11;19.60;36.50
52799;DHT22;38667;42.872;74.622;2023-05-29T16:48:37;19.60;36.60